Time;durP1;ratioP1;P1;durP2;ratioP2;P2;SDS_P1;SDS_P2;PMS_P1;PMS_P2;Temp;Humidity;BMP_temperature;BMP_pressure;BME280_temperature;BME280_humidity;BME280_pressure;Samples;Min_cycle;Max_cycle;Signal;HPM_P1;HPM_P2
2023/03/05 00:02:14;;;;;;;;;;;;;;;;;;5035414;28;19959;-86
2023/03/05 00:04:39;;;;;;;;;;;;;;;;;;5035601;28;19948;-86
2023/03/05 00:07:07;;;;;;;;;;;;;;;;;;5031520;28;19921;-86
2023/03/05 00:09:33;;;;;;;;;;;;;;;;;;5044354;28;19932;-86
2023/03/05 00:11:58;;;;;;;;;;;;;;;;;;5033977;28;19917;-85
2023/03/05 00:14:24;;;;;;;;;;;;;;;;;;5016425;28;19953;-86
2023/03/05 00:16:49;;;;;;;;;;;;;;;;;;5034088;28;20372;-87
2023/03/05 00:19:14;;;;;;;;;;;;;;;;;;5033262;28;19925;-86
2023/03/05 00:21:40;;;;;;;;;;;;;;;;;;5034096;28;19987;-86
2023/03/05 00:24:09;;;;;;;;;;;;;;;;;;5015421;28;19928;-86
2023/03/05 00:26:35;;;;;;;;;;;;;;;;;;5033434;28;19924;-86
2023/03/05 00:29:01;;;;;;;;;;;;;;;;;;5033297;28;19925;-86
2023/03/05 00:31:31;;;;;;;;;;;;;;;;;;5033538;28;20328;-86
2023/03/05 00:34:00;;;;;;;;;;;;;;;;;;5033607;28;19921;-86
2023/03/05 00:36:26;;;;;;;;;;;;;;;;;;5033855;28;19913;-87
2023/03/05 00:38:52;;;;;;;;;;;;;;;;;;5015001;28;19928;-88
2023/03/05 00:41:17;;;;;;;;;;;;;;;;;;5033665;28;19925;-85
2023/03/05 00:43:42;;;;;;;;;;;;;;;;;;5033091;28;19917;-86
2023/03/05 00:46:08;;;;;;;;;;;;;;;;;;5033646;28;19964;-87
2023/03/05 00:48:33;;;;;;;;;;;;;;;;;;5033176;28;20290;-86
2023/03/05 00:50:59;;;;;;;;;;;;;;;;;;5033583;28;19917;-85
2023/03/05 00:53:24;;;;;;;;;;;;;;;;;;5033432;28;19975;-86
2023/03/05 00:55:50;;;;;;;;;;;;;;;;;;5028514;28;19936;-87
2023/03/05 00:58:15;;;;;;;;;;;;;;;;;;5019328;28;19948;-85
2023/03/05 01:00:40;;;;;;;;;;;;;;;;;;5017289;28;19929;-88
2023/03/05 01:03:06;;;;;;;;;;;;;;;;;;5022288;28;19936;-88
2023/03/05 01:05:32;;;;;;;;;;;;;;;;;;5018258;28;19925;-85
2023/03/05 01:07:57;;;;;;;;;;;;;;;;;;5017439;28;19924;-85
2023/03/05 01:10:25;;;;;;;;;;;;;;;;;;5041433;28;20012;-86
2023/03/05 01:12:51;;;;;;;;;;;;;;;;;;5041965;28;19917;-85
2023/03/05 01:15:16;;;;;;;;;;;;;;;;;;5033155;28;19925;-87
2023/03/05 01:17:42;;;;;;;;;;;;;;;;;;5033489;28;19921;-87
2023/03/05 01:20:08;;;;;;;;;;;;;;;;;;5034929;28;20277;-88
2023/03/05 01:22:33;;;;;;;;;;;;;;;;;;5025700;28;19928;-88
2023/03/05 01:24:59;;;;;;;;;;;;;;;;;;5034553;28;19944;-88
2023/03/05 01:27:24;;;;;;;;;;;;;;;;;;5012451;28;19918;-87
2023/03/05 01:29:50;;;;;;;;;;;;;;;;;;5033738;28;19924;-87
2023/03/05 01:32:15;;;;;;;;;;;;;;;;;;5015433;28;20471;-87
2023/03/05 01:34:41;;;;;;;;;;;;;;;;;;5026747;28;19948;-87
2023/03/05 01:37:06;;;;;;;;;;;;;;;;;;5035806;28;19921;-87
2023/03/05 01:39:32;;;;;;;;;;;;;;;;;;5036700;28;20431;-86
2023/03/05 01:41:57;;;;;;;;;;;;;;;;;;5039007;28;19963;-87
2023/03/05 01:44:24;;;;;;;;;;;;;;;;;;5043347;28;19929;-86
2023/03/05 01:46:50;;;;;;;;;;;;;;;;;;5048304;28;19920;-86
2023/03/05 01:49:15;;;;;;;;;;;;;;;;;;5066596;28;20026;-87
2023/03/05 01:51:47;;;;;;;;;;;;;;;;;;5072080;28;19974;-87
2023/03/05 01:54:14;;;;;;;;;;;;;;;;;;5067321;28;19927;-87
2023/03/05 01:56:40;;;;;;;;;;;;;;;;;;5064937;28;20007;-86
2023/03/05 01:59:06;;;;;;;;;;;;;;;;;;5046443;28;19960;-86
2023/03/05 02:01:32;;;;;;;;;;;;;;;;;;5061895;28;19926;-86
2023/03/05 02:03:58;;;;;;;;;;;;;;;;;;5049703;28;20015;-87
2023/03/05 02:06:23;;;;;;;;;;;;;;;;;;5041318;28;19935;-87
2023/03/05 02:08:49;;;;;;;;;;;;;;;;;;5051810;28;19922;-87
2023/03/05 02:11:14;;;;;;;;;;;;;;;;;;5040020;28;19916;-87
2023/03/05 02:13:40;;;;;;;;;;;;;;;;;;5055118;28;19928;-86
2023/03/05 02:16:06;;;;;;;;;;;;;;;;;;5038471;28;19960;-88
2023/03/05 02:18:31;;;;;;;;;;;;;;;;;;5058485;28;19925;-86
2023/03/05 02:20:56;;;;;;;;;;;;;;;;;;5061919;28;19925;-87
2023/03/05 02:23:24;;;;;;;;;;;;;;;;;;5062401;28;19921;-87
2023/03/05 02:25:49;;;;;;;;;;;;;;;;;;5057205;28;19920;-86
2023/03/05 02:28:17;;;;;;;;;;;;;;;;;;5062029;28;20418;-86
2023/03/05 02:30:42;;;;;;;;;;;;;;;;;;5063065;28;19931;-86
2023/03/05 02:33:08;;;;;;;;;;;;;;;;;;5040162;28;19921;-87
2023/03/05 02:35:33;;;;;;;;;;;;;;;;;;5065635;28;19959;-85
2023/03/05 02:37:59;;;;;;;;;;;;;;;;;;5074597;28;19924;-88
2023/03/05 02:40:24;;;;;;;;;;;;;;;;;;5055458;28;19943;-87
2023/03/05 02:42:49;;;;;;;;;;;;;;;;;;5038112;28;19968;-86
2023/03/05 02:45:15;;;;;;;;;;;;;;;;;;5055650;28;19928;-86
2023/03/05 02:47:41;;;;;;;;;;;;;;;;;;5055446;28;19928;-85
2023/03/05 02:50:07;;;;;;;;;;;;;;;;;;5040199;28;20276;-87
2023/03/05 02:52:33;;;;;;;;;;;;;;;;;;5035372;28;19917;-87
2023/03/05 02:54:58;;;;;;;;;;;;;;;;;;5034169;28;19935;-87
2023/03/05 02:57:23;;;;;;;;;;;;;;;;;;5035757;28;20339;-86
2023/03/05 02:59:49;;;;;;;;;;;;;;;;;;5035265;28;20269;-87
2023/03/05 03:02:15;;;;;;;;;;;;;;;;;;5055476;28;20398;-86
2023/03/05 03:04:41;;;;;;;;;;;;;;;;;;5044309;28;19967;-87
2023/03/05 03:07:07;;;;;;;;;;;;;;;;;;5037338;28;19917;-86
2023/03/05 03:09:33;;;;;;;;;;;;;;;;;;5027705;28;20063;-85
2023/03/05 03:11:58;;;;;;;;;;;;;;;;;;5034870;28;19921;-87
2023/03/05 03:14:23;;;;;;;;;;;;;;;;;;5017330;28;20016;-87
2023/03/05 03:16:49;;;;;;;;;;;;;;;;;;5017299;28;19917;-86
2023/03/05 03:19:14;;;;;;;;;;;;;;;;;;5017071;28;20011;-87
2023/03/05 03:21:40;;;;;;;;;;;;;;;;;;5035287;28;19928;-86
2023/03/05 03:24:05;;;;;;;;;;;;;;;;;;5034988;28;20056;-88
2023/03/05 03:26:31;;;;;;;;;;;;;;;;;;5035563;28;19925;-87
2023/03/05 03:28:56;;;;;;;;;;;;;;;;;;5034978;28;19921;-86
2023/03/05 03:31:22;;;;;;;;;;;;;;;;;;5034595;28;19913;-87
2023/03/05 03:33:47;;;;;;;;;;;;;;;;;;5034941;28;20134;-86
2023/03/05 03:36:13;;;;;;;;;;;;;;;;;;5034981;28;19925;-86
2023/03/05 03:38:38;;;;;;;;;;;;;;;;;;5043978;28;20394;-87
2023/03/05 03:41:07;;;;;;;;;;;;;;;;;;5054382;28;19967;-85
2023/03/05 03:43:33;;;;;;;;;;;;;;;;;;5048440;28;19912;-86
2023/03/05 03:45:58;;;;;;;;;;;;;;;;;;5059923;28;19925;-86
2023/03/05 03:48:24;;;;;;;;;;;;;;;;;;5067237;28;19925;-86
2023/03/05 03:50:49;;;;;;;;;;;;;;;;;;5059760;28;20008;-86
2023/03/05 03:53:16;;;;;;;;;;;;;;;;;;5064905;28;20291;-87
2023/03/05 03:55:42;;;;;;;;;;;;;;;;;;5055660;28;19943;-86
2023/03/05 03:58:08;;;;;;;;;;;;;;;;;;5066230;28;20028;-87
2023/03/05 04:00:34;;;;;;;;;;;;;;;;;;5073947;28;19959;-87
2023/03/05 04:02:59;;;;;;;;;;;;;;;;;;5067109;28;19921;-86
2023/03/05 04:05:24;;;;;;;;;;;;;;;;;;5059682;28;19936;-86
2023/03/05 04:07:50;;;;;;;;;;;;;;;;;;5052330;28;20413;-87
2023/03/05 04:10:16;;;;;;;;;;;;;;;;;;5060931;28;19916;-86
2023/03/05 04:12:42;;;;;;;;;;;;;;;;;;5051640;28;20012;-85
2023/03/05 04:15:08;;;;;;;;;;;;;;;;;;5054194;28;19956;-87
2023/03/05 04:17:33;;;;;;;;;;;;;;;;;;5061162;28;19929;-87
2023/03/05 04:19:59;;;;;;;;;;;;;;;;;;5053270;28;19921;-86
2023/03/05 04:22:24;;;;;;;;;;;;;;;;;;5065947;28;19921;-86
2023/03/05 04:24:50;;;;;;;;;;;;;;;;;;5054063;28;20007;-86
2023/03/05 04:27:15;;;;;;;;;;;;;;;;;;5065329;28;19927;-87
2023/03/05 04:29:41;;;;;;;;;;;;;;;;;;5053795;28;19921;-86
2023/03/05 04:32:06;;;;;;;;;;;;;;;;;;5053999;28;19921;-87
2023/03/05 04:34:32;;;;;;;;;;;;;;;;;;5050760;28;19924;-86
2023/03/05 04:36:57;;;;;;;;;;;;;;;;;;5054134;28;19924;-86
2023/03/05 04:39:23;;;;;;;;;;;;;;;;;;5052937;28;19925;-87
2023/03/05 04:41:48;;;;;;;;;;;;;;;;;;5059135;28;20341;-86
2023/03/05 04:44:14;;;;;;;;;;;;;;;;;;5054876;28;19981;-86
2023/03/05 04:46:40;;;;;;;;;;;;;;;;;;5067142;28;19916;-86
2023/03/05 04:49:05;;;;;;;;;;;;;;;;;;5051786;28;20358;-88
2023/03/05 04:51:30;;;;;;;;;;;;;;;;;;5054319;28;19916;-87
2023/03/05 04:53:56;;;;;;;;;;;;;;;;;;5064944;28;19925;-86
2023/03/05 04:56:21;;;;;;;;;;;;;;;;;;5055511;28;20447;-86
2023/03/05 04:58:47;;;;;;;;;;;;;;;;;;5062202;28;19931;-87
2023/03/05 05:01:12;;;;;;;;;;;;;;;;;;5069732;28;19921;-86
2023/03/05 05:03:37;;;;;;;;;;;;;;;;;;5063572;28;19924;-86
2023/03/05 05:06:03;;;;;;;;;;;;;;;;;;5053371;28;20442;-87
2023/03/05 05:08:28;;;;;;;;;;;;;;;;;;5045234;28;19921;-87
2023/03/05 05:11:05;;;;;;;;;;;;;;;;;;5032044;28;19917;-86
2023/03/05 05:13:30;;;;;;;;;;;;;;;;;;5033308;28;19921;-86
2023/03/05 05:15:56;;;;;;;;;;;;;;;;;;5040057;28;19971;-85
2023/03/05 05:18:21;;;;;;;;;;;;;;;;;;5052561;28;19943;-86
2023/03/05 05:20:47;;;;;;;;;;;;;;;;;;5052749;28;20337;-86
2023/03/05 05:23:12;;;;;;;;;;;;;;;;;;5052815;28;20369;-87
2023/03/05 05:25:38;;;;;;;;;;;;;;;;;;5052872;28;19921;-86
2023/03/05 05:28:04;;;;;;;;;;;;;;;;;;5052795;28;19921;-86
2023/03/05 05:30:29;;;;;;;;;;;;;;;;;;5052897;28;19923;-86
2023/03/05 05:32:55;;;;;;;;;;;;;;;;;;5022228;28;20064;-86
2023/03/05 05:35:20;;;;;;;;;;;;;;;;;;5052914;28;19920;-87
2023/03/05 05:37:45;;;;;;;;;;;;;;;;;;5052332;28;19924;-87
2023/03/05 05:40:11;;;;;;;;;;;;;;;;;;5032680;28;19917;-87
2023/03/05 05:42:37;;;;;;;;;;;;;;;;;;5031620;28;20011;-87
2023/03/05 05:45:02;;;;;;;;;;;;;;;;;;5032865;28;20297;-87
2023/03/05 05:47:28;;;;;;;;;;;;;;;;;;5031421;28;19925;-86
2023/03/05 05:49:54;;;;;;;;;;;;;;;;;;5032898;28;19976;-86
2023/03/05 05:52:19;;;;;;;;;;;;;;;;;;5032879;28;19917;-87
2023/03/05 05:54:44;;;;;;;;;;;;;;;;;;5032928;28;19925;-86
2023/03/05 05:57:10;;;;;;;;;;;;;;;;;;5031274;28;20015;-86
2023/03/05 05:59:37;;;;;;;;;;;;;;;;;;5032341;28;19925;-87
2023/03/05 06:02:02;;;;;;;;;;;;;;;;;;5031493;28;19921;-86
2023/03/05 06:04:28;;;;;;;;;;;;;;;;;;5032797;28;19925;-86
2023/03/05 06:06:53;;;;;;;;;;;;;;;;;;5031408;28;19944;-87
2023/03/05 06:09:18;;;;;;;;;;;;;;;;;;5031880;28;19920;-87
2023/03/05 06:11:44;;;;;;;;;;;;;;;;;;5032715;28;20327;-87
2023/03/05 06:14:10;;;;;;;;;;;;;;;;;;5032524;28;19921;-86
2023/03/05 06:16:36;;;;;;;;;;;;;;;;;;5032668;28;19918;-88
2023/03/05 06:19:03;;;;;;;;;;;;;;;;;;5032284;28;19928;-86
2023/03/05 06:21:29;;;;;;;;;;;;;;;;;;5031259;28;20360;-86
2023/03/05 06:23:54;;;;;;;;;;;;;;;;;;5034590;28;20016;-88
2023/03/05 06:26:20;;;;;;;;;;;;;;;;;;5035012;28;20266;-87
2023/03/05 06:28:46;;;;;;;;;;;;;;;;;;5035621;28;19944;-88
2023/03/05 06:31:13;;;;;;;;;;;;;;;;;;5036175;28;20376;-87
2023/03/05 06:33:39;;;;;;;;;;;;;;;;;;5035815;28;20299;-87
2023/03/05 06:36:06;;;;;;;;;;;;;;;;;;5036188;28;19968;-89
2023/03/05 06:38:31;;;;;;;;;;;;;;;;;;5035659;28;19921;-89
2023/03/05 06:40:59;;;;;;;;;;;;;;;;;;5043022;28;19928;-88
2023/03/05 06:43:25;;;;;;;;;;;;;;;;;;5055724;28;19921;-88
2023/03/05 06:46:00;;;;;;;;;;;;;;;;;;5069745;28;19920;-88
2023/03/05 06:48:25;;;;;;;;;;;;;;;;;;5073949;28;19924;-88
2023/03/05 06:50:50;;;;;;;;;;;;;;;;;;5055820;28;19944;-87
2023/03/05 06:53:16;;;;;;;;;;;;;;;;;;5055493;28;19924;-88
2023/03/05 06:55:41;;;;;;;;;;;;;;;;;;5035063;28;19929;-88
2023/03/05 06:58:07;;;;;;;;;;;;;;;;;;5035428;28;19917;-86
2023/03/05 07:00:32;;;;;;;;;;;;;;;;;;5035336;28;19917;-87
2023/03/05 07:02:57;;;;;;;;;;;;;;;;;;5035781;28;19932;-88
2023/03/05 07:05:23;;;;;;;;;;;;;;;;;;5035478;28;19917;-87
2023/03/05 07:07:48;;;;;;;;;;;;;;;;;;5034479;28;20375;-87
2023/03/05 07:10:14;;;;;;;;;;;;;;;;;;5036183;28;19924;-87
2023/03/05 07:12:40;;;;;;;;;;;;;;;;;;5046039;28;20315;-87
2023/03/05 07:15:06;;;;;;;;;;;;;;;;;;5061128;28;20308;-88
2023/03/05 07:17:32;;;;;;;;;;;;;;;;;;5037424;28;19925;-87
2023/03/05 07:19:57;;;;;;;;;;;;;;;;;;5042404;28;19979;-88
2023/03/05 07:22:23;;;;;;;;;;;;;;;;;;5071941;28;19920;-87
2023/03/05 07:24:50;;;;;;;;;;;;;;;;;;5064324;28;19977;-87
2023/03/05 07:27:16;;;;;;;;;;;;;;;;;;5055693;28;19925;-88
2023/03/05 07:29:41;;;;;;;;;;;;;;;;;;5056015;28;19916;-88
2023/03/05 07:32:07;;;;;;;;;;;;;;;;;;5056172;28;19946;-88
2023/03/05 07:34:32;;;;;;;;;;;;;;;;;;5054984;28;20062;-89
2023/03/05 07:36:57;;;;;;;;;;;;;;;;;;5056463;28;19964;-88
2023/03/05 07:39:23;;;;;;;;;;;;;;;;;;5037660;28;20439;-88
2023/03/05 07:41:50;;;;;;;;;;;;;;;;;;5056273;28;19936;-91
2023/03/05 07:44:16;;;;;;;;;;;;;;;;;;5051341;28;19917;-90
2023/03/05 07:46:42;;;;;;;;;;;;;;;;;;5037989;28;19972;-90
2023/03/05 07:49:07;;;;;;;;;;;;;;;;;;5056171;28;20021;-88
2023/03/05 07:51:33;;;;;;;;;;;;;;;;;;5038595;28;20372;-90
2023/03/05 07:53:58;;;;;;;;;;;;;;;;;;5055701;28;20024;-88
2023/03/05 07:56:30;;;;;;;;;;;;;;;;;;5056505;28;19921;-90
2023/03/05 07:58:56;;;;;;;;;;;;;;;;;;5057124;28;19913;-89
2023/03/05 08:01:24;;;;;;;;;;;;;;;;;;5067538;28;20139;-87
2023/03/05 08:03:49;;;;;;;;;;;;;;;;;;5077629;28;19920;-90
2023/03/05 08:06:15;;;;;;;;;;;;;;;;;;5068686;28;19920;-88
2023/03/05 08:08:41;;;;;;;;;;;;;;;;;;5038246;28;20308;-89
2023/03/05 08:11:07;;;;;;;;;;;;;;;;;;5055359;28;20360;-89
2023/03/05 08:13:33;;;;;;;;;;;;;;;;;;5037645;28;19927;-89
2023/03/05 08:15:58;;;;;;;;;;;;;;;;;;5038080;28;19916;-89
2023/03/05 08:18:24;;;;;;;;;;;;;;;;;;5055757;28;20277;-88
2023/03/05 08:20:49;;;;;;;;;;;;;;;;;;5038109;28;19921;-89
2023/03/05 08:23:15;;;;;;;;;;;;;;;;;;5038286;28;20324;-89
2023/03/05 08:25:40;;;;;;;;;;;;;;;;;;5055181;28;19928;-90
2023/03/05 08:28:05;;;;;;;;;;;;;;;;;;5055744;28;19944;-88
2023/03/05 08:30:31;;;;;;;;;;;;;;;;;;5037690;28;20371;-91
2023/03/05 08:32:56;;;;;;;;;;;;;;;;;;5055326;28;19921;-88
2023/03/05 08:35:22;;;;;;;;;;;;;;;;;;5055667;28;20229;-90
2023/03/05 08:37:47;;;;;;;;;;;;;;;;;;5035848;28;20253;-90
2023/03/05 08:40:14;;;;;;;;;;;;;;;;;;5054886;28;19942;-87
2023/03/05 08:42:39;;;;;;;;;;;;;;;;;;5055316;28;20333;-88
2023/03/05 08:45:05;;;;;;;;;;;;;;;;;;5054592;28;19916;-88
2023/03/05 08:47:30;;;;;;;;;;;;;;;;;;5026491;28;20372;-88
2023/03/05 08:49:57;;;;;;;;;;;;;;;;;;5016273;28;19925;-88
2023/03/05 08:52:23;;;;;;;;;;;;;;;;;;5034870;28;19917;-88
2023/03/05 08:54:49;;;;;;;;;;;;;;;;;;5015125;28;20368;-87
2023/03/05 08:57:15;;;;;;;;;;;;;;;;;;5016128;28;19963;-89
2023/03/05 08:59:40;;;;;;;;;;;;;;;;;;5016094;28;19972;-87
2023/03/05 09:02:06;;;;;;;;;;;;;;;;;;5016009;28;20396;-88
2023/03/05 09:04:31;;;;;;;;;;;;;;;;;;5033914;28;19924;-87
2023/03/05 09:06:57;;;;;;;;;;;;;;;;;;5015869;28;20262;-87
2023/03/05 09:09:22;;;;;;;;;;;;;;;;;;5015925;28;19917;-88
2023/03/05 09:11:48;;;;;;;;;;;;;;;;;;5034482;28;19921;-88
2023/03/05 09:14:13;;;;;;;;;;;;;;;;;;5016740;28;19923;-87
2023/03/05 09:16:41;;;;;;;;;;;;;;;;;;5016528;28;20392;-88
2023/03/05 09:19:09;;;;;;;;;;;;;;;;;;5034340;28;19923;-89
2023/03/05 09:21:34;;;;;;;;;;;;;;;;;;5034036;28;19952;-88
2023/03/05 09:24:00;;;;;;;;;;;;;;;;;;5034332;28;20308;-88
2023/03/05 09:26:26;;;;;;;;;;;;;;;;;;5033905;28;20335;-88
2023/03/05 09:28:51;;;;;;;;;;;;;;;;;;5033595;28;19917;-88
2023/03/05 09:31:17;;;;;;;;;;;;;;;;;;5015671;28;19913;-87
2023/03/05 09:33:42;;;;;;;;;;;;;;;;;;5033135;28;19917;-89
2023/03/05 09:36:16;;;;;;;;;;;;;;;;;;5015601;28;20016;-89
2023/03/05 09:38:41;;;;;;;;;;;;;;;;;;5015352;28;20011;-88
2023/03/05 09:41:32;;;;;;;;;;;;;;;;;;5015450;28;20075;-88
2023/03/05 09:44:02;;;;;;;;;;;;;;;;;;5015324;28;20407;-90
2023/03/05 09:46:30;;;;;;;;;;;;;;;;;;5015872;28;19921;-88
2023/03/05 09:48:55;;;;;;;;;;;;;;;;;;5035026;28;19917;-88
2023/03/05 09:51:25;;;;;;;;;;;;;;;;;;5035122;28;19924;-89
2023/03/05 09:53:53;;;;;;;;;;;;;;;;;;5055816;28;20351;-89
2023/03/05 09:56:21;;;;;;;;;;;;;;;;;;5065623;28;20352;-89
2023/03/05 09:59:20;;;;;;;;;;;;;;;;;;5038708;28;19921;-88
2023/03/05 10:01:46;;;;;;;;;;;;;;;;;;4995965;28;19965;-88
2023/03/05 10:04:17;;;;;;;;;;;;;;;;;;5070169;28;20031;-89
2023/03/05 10:06:55;;;;;;;;;;;;;;;;;;5059814;28;20304;-87
2023/03/05 10:09:36;;;;;;;;;;;;;;;;;;5078040;28;19917;-87
2023/03/05 10:12:06;;;;;;;;;;;;;;;;;;5042064;28;19920;-88
2023/03/05 10:14:34;;;;;;;;;;;;;;;;;;5068716;28;19924;-88
2023/03/05 10:17:05;;;;;;;;;;;;;;;;;;5039068;28;20453;-87
2023/03/05 10:19:37;;;;;;;;;;;;;;;;;;5039119;28;20410;-87
2023/03/05 10:22:11;;;;;;;;;;;;;;;;;;5057190;28;19916;-86
2023/03/05 10:24:50;;;;;;;;;;;;;;;;;;5054374;28;20337;-88
2023/03/05 10:27:20;;;;;;;;;;;;;;;;;;5063403;28;19971;-88
2023/03/05 10:29:54;;;;;;;;;;;;;;;;;;5055732;28;19916;-88
2023/03/05 10:32:27;;;;;;;;;;;;;;;;;;5055363;28;19932;-88
2023/03/05 10:34:56;;;;;;;;;;;;;;;;;;5038690;28;19928;-88
2023/03/05 10:37:50;;;;;;;;;;;;;;;;;;5047105;28;20007;-90
2023/03/05 10:40:16;;;;;;;;;;;;;;;;;;4995232;28;19953;-89
2023/03/05 10:43:01;;;;;;;;;;;;;;;;;;4998148;28;20281;-89
2023/03/05 10:45:32;;;;;;;;;;;;;;;;;;4997030;28;19965;-88
2023/03/05 10:48:06;;;;;;;;;;;;;;;;;;4997699;28;19944;-89
2023/03/05 10:50:46;;;;;;;;;;;;;;;;;;4997920;28;19926;-88
2023/03/05 10:53:30;;;;;;;;;;;;;;;;;;4993916;28;19918;-89
2023/03/05 10:55:59;;;;;;;;;;;;;;;;;;5014725;28;19917;-90
2023/03/05 10:58:25;;;;;;;;;;;;;;;;;;4998451;28;20408;-87
2023/03/05 11:01:22;;;;;;;;;;;;;;;;;;4996226;28;19921;-88
2023/03/05 11:03:58;;;;;;;;;;;;;;;;;;4982545;28;19917;-88
2023/03/05 11:06:35;;;;;;;;;;;;;;;;;;5000762;28;19918;-89
2023/03/05 11:09:20;;;;;;;;;;;;;;;;;;5016253;28;20373;-87
2023/03/05 11:12:05;;;;;;;;;;;;;;;;;;5014399;28;19941;-87
2023/03/05 11:14:34;;;;;;;;;;;;;;;;;;4989496;28;19921;-89
2023/03/05 11:17:00;;;;;;;;;;;;;;;;;;5028880;28;19921;-87
2023/03/05 11:19:34;;;;;;;;;;;;;;;;;;5035464;28;20391;-88
2023/03/05 11:22:13;;;;;;;;;;;;;;;;;;5036882;28;19917;-89
2023/03/05 11:24:40;;;;;;;;;;;;;;;;;;5030628;28;19976;-87
2023/03/05 11:27:23;;;;;;;;;;;;;;;;;;5016536;28;20334;-88
2023/03/05 11:29:48;;;;;;;;;;;;;;;;;;5015278;28;19925;-89
2023/03/05 11:32:16;;;;;;;;;;;;;;;;;;5015427;28;19968;-89
2023/03/05 11:34:41;;;;;;;;;;;;;;;;;;5015667;28;19924;-89
2023/03/05 11:37:19;;;;;;;;;;;;;;;;;;5016061;28;19918;-88
2023/03/05 11:39:45;;;;;;;;;;;;;;;;;;5016354;28;19922;-87
2023/03/05 11:42:18;;;;;;;;;;;;;;;;;;5016059;28;20008;-89
2023/03/05 11:44:47;;;;;;;;;;;;;;;;;;5016747;28;19924;-88
2023/03/05 11:47:18;;;;;;;;;;;;;;;;;;5022362;28;19984;-88
2023/03/05 11:49:45;;;;;;;;;;;;;;;;;;5036684;28;19917;-88
2023/03/05 11:52:17;;;;;;;;;;;;;;;;;;5036037;28;19940;-87
2023/03/05 11:55:01;;;;;;;;;;;;;;;;;;5035695;28;19971;-87
2023/03/05 11:57:28;;;;;;;;;;;;;;;;;;5034498;28;20004;-87
2023/03/05 11:59:55;;;;;;;;;;;;;;;;;;5035316;28;19917;-86
2023/03/05 12:02:25;;;;;;;;;;;;;;;;;;5023248;28;19917;-87
2023/03/05 12:04:50;;;;;;;;;;;;;;;;;;5074023;28;20000;-87
2023/03/05 12:07:22;;;;;;;;;;;;;;;;;;5052561;28;19921;-86
2023/03/05 12:09:50;;;;;;;;;;;;;;;;;;5056109;28;19964;-87
2023/03/05 12:12:15;;;;;;;;;;;;;;;;;;5055089;28;19920;-89
2023/03/05 12:14:47;;;;;;;;;;;;;;;;;;5037053;28;19917;-86
2023/03/05 12:17:20;;;;;;;;;;;;;;;;;;5055120;28;19916;-87
2023/03/05 12:19:45;;;;;;;;;;;;;;;;;;5055383;28;20016;-85
2023/03/05 12:22:16;;;;;;;;;;;;;;;;;;5036939;28;19944;-86
2023/03/05 12:24:41;;;;;;;;;;;;;;;;;;5038250;28;20386;-86
2023/03/05 12:27:09;;;;;;;;;;;;;;;;;;5063782;28;19921;-87
2023/03/05 12:29:43;;;;;;;;;;;;;;;;;;5055298;28;20008;-87
2023/03/05 12:32:20;;;;;;;;;;;;;;;;;;5037381;28;19971;-86
2023/03/05 12:34:47;;;;;;;;;;;;;;;;;;5055119;28;20308;-86
2023/03/05 12:37:32;;;;;;;;;;;;;;;;;;5051059;28;19924;-86
2023/03/05 12:39:59;;;;;;;;;;;;;;;;;;5052757;28;20110;-87
2023/03/05 12:42:28;;;;;;;;;;;;;;;;;;5059880;28;19927;-88
2023/03/05 12:45:26;;;;;;;;;;;;;;;;;;5038817;28;20011;-87
2023/03/05 12:47:54;;;;;;;;;;;;;;;;;;4965073;28;19926;-88
2023/03/05 12:50:26;;;;;;;;;;;;;;;;;;5018469;28;19920;-88
2023/03/05 12:52:55;;;;;;;;;;;;;;;;;;5023997;28;20265;-86
2023/03/05 12:55:35;;;;;;;;;;;;;;;;;;5019617;28;20360;-89
2023/03/05 12:58:26;;;;;;;;;;;;;;;;;;5023221;28;20408;-87
2023/03/05 13:00:56;;;;;;;;;;;;;;;;;;5018609;28;19937;-86
2023/03/05 13:03:30;;;;;;;;;;;;;;;;;;5018251;28;19917;-87
2023/03/05 13:05:56;;;;;;;;;;;;;;;;;;5021358;28;19921;-87
2023/03/05 13:08:24;;;;;;;;;;;;;;;;;;5019016;28;19929;-88
2023/03/05 13:11:00;;;;;;;;;;;;;;;;;;5018359;28;19961;-87
2023/03/05 13:13:26;;;;;;;;;;;;;;;;;;5017883;28;19983;-89
2023/03/05 13:15:52;;;;;;;;;;;;;;;;;;5024843;28;19964;-87
2023/03/05 13:18:22;;;;;;;;;;;;;;;;;;5022930;28;20018;-86
2023/03/05 13:20:51;;;;;;;;;;;;;;;;;;5020293;28;19936;-89
2023/03/05 13:23:25;;;;;;;;;;;;;;;;;;5021704;28;19987;-87
2023/03/05 13:26:09;;;;;;;;;;;;;;;;;;5030960;28;19917;-88
2023/03/05 13:28:36;;;;;;;;;;;;;;;;;;5026945;28;19921;-87
2023/03/05 13:31:10;;;;;;;;;;;;;;;;;;5015190;28;19917;-87
2023/03/05 13:33:36;;;;;;;;;;;;;;;;;;5015569;28;19918;-87
2023/03/05 13:36:02;;;;;;;;;;;;;;;;;;5014455;28;20092;-87
2023/03/05 13:38:29;;;;;;;;;;;;;;;;;;5014151;28;19991;-87
2023/03/05 13:41:01;;;;;;;;;;;;;;;;;;5047442;28;20017;-86
2023/03/05 13:43:27;;;;;;;;;;;;;;;;;;5053429;28;20422;-87
2023/03/05 13:45:55;;;;;;;;;;;;;;;;;;5036204;28;19921;-87
2023/03/05 13:48:20;;;;;;;;;;;;;;;;;;5069716;28;19920;-86
2023/03/05 13:50:52;;;;;;;;;;;;;;;;;;5069172;28;20288;-86
2023/03/05 13:53:21;;;;;;;;;;;;;;;;;;5054451;28;19917;-88
2023/03/05 13:55:48;;;;;;;;;;;;;;;;;;5054162;28;19923;-88
2023/03/05 13:58:32;;;;;;;;;;;;;;;;;;5055044;28;19921;-86
2023/03/05 14:01:11;;;;;;;;;;;;;;;;;;5053577;28;19917;-87
2023/03/05 14:03:36;;;;;;;;;;;;;;;;;;5058026;28;19917;-87
2023/03/05 14:06:05;;;;;;;;;;;;;;;;;;5073256;28;20015;-87
2023/03/05 14:08:30;;;;;;;;;;;;;;;;;;5073243;28;19921;-88
2023/03/05 14:10:56;;;;;;;;;;;;;;;;;;5056928;28;20329;-87
2023/03/05 14:13:23;;;;;;;;;;;;;;;;;;5076618;28;19917;-86
2023/03/05 14:16:21;;;;;;;;;;;;;;;;;;5075428;28;20402;-86
2023/03/05 14:18:52;;;;;;;;;;;;;;;;;;5019245;28;20383;-86
2023/03/05 14:21:18;;;;;;;;;;;;;;;;;;5073810;28;19956;-87
2023/03/05 14:23:47;;;;;;;;;;;;;;;;;;5077715;28;19924;-88
2023/03/05 14:26:22;;;;;;;;;;;;;;;;;;5059355;28;19923;-85
2023/03/05 14:28:55;;;;;;;;;;;;;;;;;;5072953;28;19924;-88
2023/03/05 14:31:21;;;;;;;;;;;;;;;;;;5072855;28;19928;-85
2023/03/05 14:33:48;;;;;;;;;;;;;;;;;;5055835;28;19920;-86
2023/03/05 14:36:13;;;;;;;;;;;;;;;;;;5074805;28;19979;-86
2023/03/05 14:38:40;;;;;;;;;;;;;;;;;;5074656;28;19960;-86
2023/03/05 14:41:21;;;;;;;;;;;;;;;;;;5073928;28;19917;-87
2023/03/05 14:43:46;;;;;;;;;;;;;;;;;;5074365;28;19917;-86
2023/03/05 14:46:12;;;;;;;;;;;;;;;;;;5077529;28;19921;-88
2023/03/05 14:48:37;;;;;;;;;;;;;;;;;;5076327;28;19924;-88
2023/03/05 14:51:03;;;;;;;;;;;;;;;;;;5076061;28;19917;-88
2023/03/05 14:53:34;;;;;;;;;;;;;;;;;;5076884;28;20373;-87
2023/03/05 14:56:01;;;;;;;;;;;;;;;;;;5076398;28;19924;-87
2023/03/05 14:58:31;;;;;;;;;;;;;;;;;;5058055;28;19974;-86
2023/03/05 15:00:57;;;;;;;;;;;;;;;;;;5072230;28;19997;-86
2023/03/05 15:03:29;;;;;;;;;;;;;;;;;;5059674;28;19917;-87
2023/03/05 15:05:56;;;;;;;;;;;;;;;;;;5071840;28;19970;-89
2023/03/05 15:08:23;;;;;;;;;;;;;;;;;;5079275;28;19996;-87
2023/03/05 15:10:49;;;;;;;;;;;;;;;;;;5076200;28;20007;-86
2023/03/05 15:13:15;;;;;;;;;;;;;;;;;;5077083;28;20007;-87
2023/03/05 15:15:41;;;;;;;;;;;;;;;;;;5057856;28;20026;-87
2023/03/05 15:18:06;;;;;;;;;;;;;;;;;;5075890;28;19924;-86
2023/03/05 15:20:32;;;;;;;;;;;;;;;;;;5056708;28;19924;-88
2023/03/05 15:22:58;;;;;;;;;;;;;;;;;;5044463;28;19916;-87
2023/03/05 15:25:25;;;;;;;;;;;;;;;;;;5036882;28;19923;-86
2023/03/05 15:27:50;;;;;;;;;;;;;;;;;;5066360;28;19927;-86
2023/03/05 15:30:22;;;;;;;;;;;;;;;;;;5055373;28;19917;-85
2023/03/05 15:32:47;;;;;;;;;;;;;;;;;;5058682;28;19916;-87
2023/03/05 15:35:13;;;;;;;;;;;;;;;;;;5064874;28;19917;-86
2023/03/05 15:37:38;;;;;;;;;;;;;;;;;;5057010;28;19920;-86
2023/03/05 15:40:04;;;;;;;;;;;;;;;;;;5055759;28;19917;-86
2023/03/05 15:42:29;;;;;;;;;;;;;;;;;;5055803;28;19916;-85
2023/03/05 15:44:55;;;;;;;;;;;;;;;;;;5058927;28;19967;-85
2023/03/05 15:47:20;;;;;;;;;;;;;;;;;;5061493;28;19928;-86
2023/03/05 15:49:45;;;;;;;;;;;;;;;;;;5057916;28;19956;-87
2023/03/05 15:52:11;;;;;;;;;;;;;;;;;;5073980;28;20007;-85
2023/03/05 15:54:36;;;;;;;;;;;;;;;;;;5048361;28;19921;-86
2023/03/05 15:57:03;;;;;;;;;;;;;;;;;;5056679;28;19982;-87
2023/03/05 15:59:28;;;;;;;;;;;;;;;;;;5048952;28;20343;-85
2023/03/05 16:01:54;;;;;;;;;;;;;;;;;;5047952;28;19932;-87
2023/03/05 16:04:19;;;;;;;;;;;;;;;;;;5044744;28;19928;-85
2023/03/05 16:06:45;;;;;;;;;;;;;;;;;;5045478;28;19932;-87
2023/03/05 16:09:12;;;;;;;;;;;;;;;;;;5029889;28;19928;-87
2023/03/05 16:11:39;;;;;;;;;;;;;;;;;;5045479;28;19924;-86
2023/03/05 16:14:07;;;;;;;;;;;;;;;;;;5078184;28;19939;-86
2023/03/05 16:16:33;;;;;;;;;;;;;;;;;;5081773;28;20007;-85
2023/03/05 16:18:59;;;;;;;;;;;;;;;;;;5063742;28;19924;-85
2023/03/05 16:21:24;;;;;;;;;;;;;;;;;;5058578;28;19920;-86
2023/03/05 16:23:50;;;;;;;;;;;;;;;;;;5057367;28;19947;-85
2023/03/05 16:26:15;;;;;;;;;;;;;;;;;;5066881;28;19917;-87
2023/03/05 16:28:41;;;;;;;;;;;;;;;;;;5060706;28;20292;-86
2023/03/05 16:31:06;;;;;;;;;;;;;;;;;;5075235;28;19917;-85
2023/03/05 16:33:32;;;;;;;;;;;;;;;;;;5041319;28;20281;-88
2023/03/05 16:36:13;;;;;;;;;;;;;;;;;;5067286;28;19927;-86
2023/03/05 16:38:38;;;;;;;;;;;;;;;;;;5067878;28;19917;-86
2023/03/05 16:41:03;;;;;;;;;;;;;;;;;;5058512;28;20308;-86
2023/03/05 16:43:29;;;;;;;;;;;;;;;;;;5055460;28;20331;-86
2023/03/05 16:45:54;;;;;;;;;;;;;;;;;;5040172;28;20366;-86
2023/03/05 16:48:20;;;;;;;;;;;;;;;;;;5054418;28;19920;-87
2023/03/05 16:50:45;;;;;;;;;;;;;;;;;;5053104;28;19928;-86